sensor_id;sensor_type;location;lat;lon;timestamp;temperature;humidity
70089;HTU21D;57460;47.134;19.888;2023-02-01T00:04:51;5.82;67.33
70089;HTU21D;57460;47.134;19.888;2023-02-01T00:10:34;5.90;66.22
70089;HTU21D;57460;47.134;19.888;2023-02-01T00:13:06;5.84;66.68
70089;HTU21D;57460;47.134;19.888;2023-02-01T00:25:50;5.91;65.95
70089;HTU21D;57460;47.134;19.888;2023-02-01T00:28:41;5.91;66.28
70089;HTU21D;57460;47.134;19.888;2023-02-01T00:37:53;6.10;65.37
70089;HTU21D;57460;47.134;19.888;2023-02-01T00:40:38;6.30;64.80
70089;HTU21D;57460;47.134;19.888;2023-02-01T00:52:09;6.57;63.40
70089;HTU21D;57460;47.134;19.888;2023-02-01T01:10:25;6.49;63.69
70089;HTU21D;57460;47.134;19.888;2023-02-01T01:15:41;6.60;63.27
70089;HTU21D;57460;47.134;19.888;2023-02-01T01:36:32;6.95;61.86
70089;HTU21D;57460;47.134;19.888;2023-02-01T01:39:45;7.00;61.57
70089;HTU21D;57460;47.134;19.888;2023-02-01T01:42:27;6.94;62.17
70089;HTU21D;57460;47.134;19.888;2023-02-01T02:09:36;7.10;59.97
70089;HTU21D;57460;47.134;19.888;2023-02-01T02:58:36;6.73;59.46
70089;HTU21D;57460;47.134;19.888;2023-02-01T03:01:32;6.63;59.32
70089;HTU21D;57460;47.134;19.888;2023-02-01T03:30:46;6.34;59.50
70089;HTU21D;57460;47.134;19.888;2023-02-01T03:37:11;6.01;60.39
70089;HTU21D;57460;47.134;19.888;2023-02-01T03:51:52;6.11;60.37
70089;HTU21D;57460;47.134;19.888;2023-02-01T03:54:25;6.33;59.64
70089;HTU21D;57460;47.134;19.888;2023-02-01T03:59:38;6.20;60.12
70089;HTU21D;57460;47.134;19.888;2023-02-01T04:02:29;5.99;60.64
70089;HTU21D;57460;47.134;19.888;2023-02-01T04:05:02;5.96;60.68
70089;HTU21D;57460;47.134;19.888;2023-02-01T04:11:14;5.69;61.76
70089;HTU21D;57460;47.134;19.888;2023-02-01T04:13:40;5.89;61.19
70089;HTU21D;57460;47.134;19.888;2023-02-01T04:16:23;6.04;60.94
70089;HTU21D;57460;47.134;19.888;2023-02-01T04:19:25;5.90;61.26
70089;HTU21D;57460;47.134;19.888;2023-02-01T04:25:31;5.82;61.65
70089;HTU21D;57460;47.134;19.888;2023-02-01T04:28:21;5.77;62.12
70089;HTU21D;57460;47.134;19.888;2023-02-01T04:33:35;5.82;62.12
70089;HTU21D;57460;47.134;19.888;2023-02-01T04:48:30;5.57;62.83
70089;HTU21D;57460;47.134;19.888;2023-02-01T05:02:55;5.30;63.90
70089;HTU21D;57460;47.134;19.888;2023-02-01T05:05:55;5.18;64.47
70089;HTU21D;57460;47.134;19.888;2023-02-01T05:14:38;5.38;63.30
70089;HTU21D;57460;47.134;19.888;2023-02-01T05:17:41;5.30;63.45
70089;HTU21D;57460;47.134;19.888;2023-02-01T05:20:13;5.06;64.69
70089;HTU21D;57460;47.134;19.888;2023-02-01T05:22:57;5.02;64.59
70089;HTU21D;57460;47.134;19.888;2023-02-01T05:25:44;4.96;64.62
70089;HTU21D;57460;47.134;19.888;2023-02-01T05:28:14;4.84;65.46
70089;HTU21D;57460;47.134;19.888;2023-02-01T05:39:32;4.73;65.79
70089;HTU21D;57460;47.134;19.888;2023-02-01T05:47:52;4.73;65.20
70089;HTU21D;57460;47.134;19.888;2023-02-01T05:53:27;4.68;65.40
70089;HTU21D;57460;47.134;19.888;2023-02-01T06:05:04;4.50;65.42
70089;HTU21D;57460;47.134;19.888;2023-02-01T06:11:15;4.46;66.00
70089;HTU21D;57460;47.134;19.888;2023-02-01T06:14:00;4.39;66.14
70089;HTU21D;57460;47.134;19.888;2023-02-01T06:17:00;4.62;65.68
70089;HTU21D;57460;47.134;19.888;2023-02-01T06:32:52;5.10;65.20
70089;HTU21D;57460;47.134;19.888;2023-02-01T06:38:49;5.05;65.42
70089;HTU21D;57460;47.134;19.888;2023-02-01T06:41:52;4.94;66.21
70089;HTU21D;57460;47.134;19.888;2023-02-01T06:53:25;5.32;64.96
70089;HTU21D;57460;47.134;19.888;2023-02-01T07:08:35;5.51;65.19
70089;HTU21D;57460;47.134;19.888;2023-02-01T07:11:42;5.66;64.66
70089;HTU21D;57460;47.134;19.888;2023-02-01T07:42:31;6.72;62.44
70089;HTU21D;57460;47.134;19.888;2023-02-01T07:52:09;7.41;60.53
70089;HTU21D;57460;47.134;19.888;2023-02-01T07:54:58;7.54;59.82
70089;HTU21D;57460;47.134;19.888;2023-02-01T07:58:27;7.57;60.09
70089;HTU21D;57460;47.134;19.888;2023-02-01T08:01:19;7.59;59.99
70089;HTU21D;57460;47.134;19.888;2023-02-01T08:03:56;7.61;59.47
70089;HTU21D;57460;47.134;19.888;2023-02-01T08:06:44;7.82;58.96
70089;HTU21D;57460;47.134;19.888;2023-02-01T08:09:28;8.04;58.14
70089;HTU21D;57460;47.134;19.888;2023-02-01T08:12:13;8.00;58.43
70089;HTU21D;57460;47.134;19.888;2023-02-01T08:15:17;8.18;57.96
70089;HTU21D;57460;47.134;19.888;2023-02-01T08:27:33;8.58;57.03
70089;HTU21D;57460;47.134;19.888;2023-02-01T08:30:18;8.55;57.28
70089;HTU21D;57460;47.134;19.888;2023-02-01T08:42:03;9.14;55.24
70089;HTU21D;57460;47.134;19.888;2023-02-01T08:47:44;8.98;54.49
70089;HTU21D;57460;47.134;19.888;2023-02-01T08:53:05;8.82;55.18
70089;HTU21D;57460;47.134;19.888;2023-02-01T08:55:41;8.94;54.77
70089;HTU21D;57460;47.134;19.888;2023-02-01T10:00:57;12.77;45.54
70089;HTU21D;57460;47.134;19.888;2023-02-01T10:30:24;11.54;47.92
70089;HTU21D;57460;47.134;19.888;2023-02-01T10:37:19;11.53;47.12
70089;HTU21D;57460;47.134;19.888;2023-02-01T10:52:52;11.68;46.41
70089;HTU21D;57460;47.134;19.888;2023-02-01T11:20:04;10.64;50.37
70089;HTU21D;57460;47.134;19.888;2023-02-01T11:25:55;10.96;49.33
70089;HTU21D;57460;47.134;19.888;2023-02-01T11:31:38;10.46;50.43
70089;HTU21D;57460;47.134;19.888;2023-02-01T11:39:53;10.42;51.43
70089;HTU21D;57460;47.134;19.888;2023-02-01T12:23:37;10.92;52.53
70089;HTU21D;57460;47.134;19.888;2023-02-01T12:58:17;9.66;60.14
70089;HTU21D;57460;47.134;19.888;2023-02-01T13:09:05;9.26;61.75
70089;HTU21D;57460;47.134;19.888;2023-02-01T13:23:11;8.79;65.27
70089;HTU21D;57460;47.134;19.888;2023-02-01T13:25:53;8.75;64.63
70089;HTU21D;57460;47.134;19.888;2023-02-01T13:31:17;8.16;67.93
70089;HTU21D;57460;47.134;19.888;2023-02-01T13:42:42;7.32;70.38
70089;HTU21D;57460;47.134;19.888;2023-02-01T13:45:30;7.25;70.64
70089;HTU21D;57460;47.134;19.888;2023-02-01T13:48:04;7.12;71.13
70089;HTU21D;57460;47.134;19.888;2023-02-01T13:54:45;6.86;73.28
70089;HTU21D;57460;47.134;19.888;2023-02-01T14:05:11;6.88;73.54
70089;HTU21D;57460;47.134;19.888;2023-02-01T14:21:32;6.65;74.35
70089;HTU21D;57460;47.134;19.888;2023-02-01T14:24:27;6.95;72.77
70089;HTU21D;57460;47.134;19.888;2023-02-01T14:27:18;6.84;73.64
70089;HTU21D;57460;47.134;19.888;2023-02-01T14:32:53;6.73;72.81
70089;HTU21D;57460;47.134;19.888;2023-02-01T14:35:42;6.96;71.93
70089;HTU21D;57460;47.134;19.888;2023-02-01T14:44:26;6.88;71.84
70089;HTU21D;57460;47.134;19.888;2023-02-01T14:56:14;6.39;74.04
70089;HTU21D;57460;47.134;19.888;2023-02-01T15:02:23;6.36;75.19
70089;HTU21D;57460;47.134;19.888;2023-02-01T15:05:31;6.39;74.31
70089;HTU21D;57460;47.134;19.888;2023-02-01T15:08:25;6.65;73.63
70089;HTU21D;57460;47.134;19.888;2023-02-01T15:11:08;6.68;73.16
70089;HTU21D;57460;47.134;19.888;2023-02-01T15:13:49;6.49;74.25
70089;HTU21D;57460;47.134;19.888;2023-02-01T15:19:09;6.64;73.99
70089;HTU21D;57460;47.134;19.888;2023-02-01T15:21:47;6.74;73.38
70089;HTU21D;57460;47.134;19.888;2023-02-01T15:24:25;6.44;74.66
70089;HTU21D;57460;47.134;19.888;2023-02-01T15:27:13;6.64;74.05
70089;HTU21D;57460;47.134;19.888;2023-02-01T15:29:39;6.97;72.71
70089;HTU21D;57460;47.134;19.888;2023-02-01T15:32:05;6.76;74.10
70089;HTU21D;57460;47.134;19.888;2023-02-01T15:41:33;6.63;73.76
70089;HTU21D;57460;47.134;19.888;2023-02-01T15:50:33;6.43;73.62
70089;HTU21D;57460;47.134;19.888;2023-02-01T15:52:59;6.20;74.17
70089;HTU21D;57460;47.134;19.888;2023-02-01T15:55:40;6.30;73.54
70089;HTU21D;57460;47.134;19.888;2023-02-01T15:58:23;6.24;73.57
70089;HTU21D;57460;47.134;19.888;2023-02-01T16:01:02;5.85;75.53
70089;HTU21D;57460;47.134;19.888;2023-02-01T16:03:39;5.84;75.08
70089;HTU21D;57460;47.134;19.888;2023-02-01T16:06:30;5.70;76.63
70089;HTU21D;57460;47.134;19.888;2023-02-01T16:11:28;5.62;76.71
70089;HTU21D;57460;47.134;19.888;2023-02-01T16:13:57;5.56;76.94
70089;HTU21D;57460;47.134;19.888;2023-02-01T16:16:23;5.52;76.77
70089;HTU21D;57460;47.134;19.888;2023-02-01T16:18:49;5.65;75.83
70089;HTU21D;57460;47.134;19.888;2023-02-01T16:21:15;5.62;75.81
70089;HTU21D;57460;47.134;19.888;2023-02-01T16:23:41;5.66;75.53
70089;HTU21D;57460;47.134;19.888;2023-02-01T16:26:08;5.63;76.02
70089;HTU21D;57460;47.134;19.888;2023-02-01T16:28:34;5.64;76.02
70089;HTU21D;57460;47.134;19.888;2023-02-01T16:31:01;5.78;75.36
70089;HTU21D;57460;47.134;19.888;2023-02-01T16:33:27;5.68;75.99
70089;HTU21D;57460;47.134;19.888;2023-02-01T16:35:56;5.59;76.70
70089;HTU21D;57460;47.134;19.888;2023-02-01T16:38:27;5.63;76.21
70089;HTU21D;57460;47.134;19.888;2023-02-01T16:40:53;5.65;76.15
70089;HTU21D;57460;47.134;19.888;2023-02-01T16:43:22;5.65;76.62
70089;HTU21D;57460;47.134;19.888;2023-02-01T16:45:50;5.76;75.21
70089;HTU21D;57460;47.134;19.888;2023-02-01T16:48:32;5.63;75.59
70089;HTU21D;57460;47.134;19.888;2023-02-01T16:51:02;5.51;76.53
70089;HTU21D;57460;47.134;19.888;2023-02-01T16:53:31;5.53;76.00
70089;HTU21D;57460;47.134;19.888;2023-02-01T16:55:57;5.38;77.81
70089;HTU21D;57460;47.134;19.888;2023-02-01T16:58:24;5.56;75.97
70089;HTU21D;57460;47.134;19.888;2023-02-01T17:00:51;5.47;76.50
70089;HTU21D;57460;47.134;19.888;2023-02-01T17:03:18;5.34;78.18
70089;HTU21D;57460;47.134;19.888;2023-02-01T17:05:51;5.47;76.43
70089;HTU21D;57460;47.134;19.888;2023-02-01T17:08:29;5.52;75.70
70089;HTU21D;57460;47.134;19.888;2023-02-01T17:10:56;5.38;76.57
70089;HTU21D;57460;47.134;19.888;2023-02-01T17:13:22;5.49;76.07
70089;HTU21D;57460;47.134;19.888;2023-02-01T17:15:54;5.47;76.53
70089;HTU21D;57460;47.134;19.888;2023-02-01T17:18:21;5.59;75.70
70089;HTU21D;57460;47.134;19.888;2023-02-01T17:20:47;5.55;76.30
70089;HTU21D;57460;47.134;19.888;2023-02-01T17:23:17;5.70;74.32
70089;HTU21D;57460;47.134;19.888;2023-02-01T17:25:43;5.67;75.05
70089;HTU21D;57460;47.134;19.888;2023-02-01T17:28:31;5.64;75.18
70089;HTU21D;57460;47.134;19.888;2023-02-01T17:30:58;5.47;76.20
70089;HTU21D;57460;47.134;19.888;2023-02-01T17:33:35;5.57;75.25
70089;HTU21D;57460;47.134;19.888;2023-02-01T17:36:04;5.81;74.09
70089;HTU21D;57460;47.134;19.888;2023-02-01T17:38:31;5.69;74.76
70089;HTU21D;57460;47.134;19.888;2023-02-01T17:41:00;5.96;73.44
70089;HTU21D;57460;47.134;19.888;2023-02-01T17:43:27;5.89;73.80
70089;HTU21D;57460;47.134;19.888;2023-02-01T17:46:04;5.82;73.93
70089;HTU21D;57460;47.134;19.888;2023-02-01T17:48:49;5.77;74.15
70089;HTU21D;57460;47.134;19.888;2023-02-01T17:51:17;5.85;73.54
70089;HTU21D;57460;47.134;19.888;2023-02-01T17:53:45;5.95;73.12
70089;HTU21D;57460;47.134;19.888;2023-02-01T17:56:22;5.68;74.99
70089;HTU21D;57460;47.134;19.888;2023-02-01T17:58:49;5.89;73.77
70089;HTU21D;57460;47.134;19.888;2023-02-01T18:01:23;5.71;74.55
70089;HTU21D;57460;47.134;19.888;2023-02-01T18:03:50;5.70;74.22
70089;HTU21D;57460;47.134;19.888;2023-02-01T18:06:22;5.74;73.96
70089;HTU21D;57460;47.134;19.888;2023-02-01T18:08:49;5.65;74.51
70089;HTU21D;57460;47.134;19.888;2023-02-01T18:11:18;5.71;73.74
70089;HTU21D;57460;47.134;19.888;2023-02-01T18:13:45;5.55;74.83
70089;HTU21D;57460;47.134;19.888;2023-02-01T18:16:21;5.59;74.50
70089;HTU21D;57460;47.134;19.888;2023-02-01T18:18:48;5.47;75.12
70089;HTU21D;57460;47.134;19.888;2023-02-01T18:21:42;5.49;74.75
70089;HTU21D;57460;47.134;19.888;2023-02-01T18:24:13;5.48;74.99
70089;HTU21D;57460;47.134;19.888;2023-02-01T18:29:26;5.40;74.83
70089;HTU21D;57460;47.134;19.888;2023-02-01T18:31:53;5.56;74.04
70089;HTU21D;57460;47.134;19.888;2023-02-01T18:34:20;5.37;74.77
70089;HTU21D;57460;47.134;19.888;2023-02-01T18:36:50;5.43;73.86
70089;HTU21D;57460;47.134;19.888;2023-02-01T18:39:38;5.46;74.21
70089;HTU21D;57460;47.134;19.888;2023-02-01T18:42:05;5.53;73.44
70089;HTU21D;57460;47.134;19.888;2023-02-01T18:44:31;5.41;74.20
70089;HTU21D;57460;47.134;19.888;2023-02-01T18:47:16;5.60;72.77
70089;HTU21D;57460;47.134;19.888;2023-02-01T18:49:43;5.54;72.70
70089;HTU21D;57460;47.134;19.888;2023-02-01T18:52:12;5.49;72.69
70089;HTU21D;57460;47.134;19.888;2023-02-01T18:54:41;5.47;72.64
70089;HTU21D;57460;47.134;19.888;2023-02-01T18:57:07;5.41;73.02
70089;HTU21D;57460;47.134;19.888;2023-02-01T18:59:37;5.25;73.79
70089;HTU21D;57460;47.134;19.888;2023-02-01T19:05:08;5.28;72.96
70089;HTU21D;57460;47.134;19.888;2023-02-01T19:10:23;5.18;73.00
70089;HTU21D;57460;47.134;19.888;2023-02-01T19:12:52;5.17;73.26
70089;HTU21D;57460;47.134;19.888;2023-02-01T19:15:20;5.20;73.01
70089;HTU21D;57460;47.134;19.888;2023-02-01T19:17:49;5.16;72.90
70089;HTU21D;57460;47.134;19.888;2023-02-01T19:20:21;5.17;72.79
70089;HTU21D;57460;47.134;19.888;2023-02-01T19:22:48;5.24;72.83
70089;HTU21D;57460;47.134;19.888;2023-02-01T19:25:20;5.21;72.80
70089;HTU21D;57460;47.134;19.888;2023-02-01T19:27:51;5.11;72.99
70089;HTU21D;57460;47.134;19.888;2023-02-01T19:30:21;5.23;72.13
70089;HTU21D;57460;47.134;19.888;2023-02-01T19:32:49;5.33;71.58
70089;HTU21D;57460;47.134;19.888;2023-02-01T19:35:19;5.15;72.54
70089;HTU21D;57460;47.134;19.888;2023-02-01T19:38:03;5.37;71.45
70089;HTU21D;57460;47.134;19.888;2023-02-01T19:40:49;5.23;71.48
70089;HTU21D;57460;47.134;19.888;2023-02-01T19:43:15;5.33;71.31
70089;HTU21D;57460;47.134;19.888;2023-02-01T19:45:42;5.65;70.41
70089;HTU21D;57460;47.134;19.888;2023-02-01T19:48:08;5.19;72.15
70089;HTU21D;57460;47.134;19.888;2023-02-01T19:50:39;5.43;70.94
70089;HTU21D;57460;47.134;19.888;2023-02-01T19:53:06;5.34;71.28
70089;HTU21D;57460;47.134;19.888;2023-02-01T19:55:35;5.41;71.25
70089;HTU21D;57460;47.134;19.888;2023-02-01T19:58:01;5.39;71.32
70089;HTU21D;57460;47.134;19.888;2023-02-01T20:01:00;5.25;71.62
70089;HTU21D;57460;47.134;19.888;2023-02-01T20:03:29;5.11;72.16
70089;HTU21D;57460;47.134;19.888;2023-02-01T20:05:58;5.21;71.70
70089;HTU21D;57460;47.134;19.888;2023-02-01T20:08:25;5.21;71.72
70089;HTU21D;57460;47.134;19.888;2023-02-01T20:10:54;5.05;72.40
70089;HTU21D;57460;47.134;19.888;2023-02-01T20:13:23;5.07;72.06
70089;HTU21D;57460;47.134;19.888;2023-02-01T20:15:56;5.13;72.25
70089;HTU21D;57460;47.134;19.888;2023-02-01T20:18:26;5.18;71.44
70089;HTU21D;57460;47.134;19.888;2023-02-01T20:20:58;5.12;72.00
70089;HTU21D;57460;47.134;19.888;2023-02-01T20:23:29;5.18;71.65
70089;HTU21D;57460;47.134;19.888;2023-02-01T20:26:05;5.18;71.87
70089;HTU21D;57460;47.134;19.888;2023-02-01T20:28:38;5.22;70.79
70089;HTU21D;57460;47.134;19.888;2023-02-01T20:31:10;5.12;71.93
70089;HTU21D;57460;47.134;19.888;2023-02-01T20:33:43;4.98;72.17
70089;HTU21D;57460;47.134;19.888;2023-02-01T20:36:09;5.17;71.06
70089;HTU21D;57460;47.134;19.888;2023-02-01T20:38:35;5.02;71.98
70089;HTU21D;57460;47.134;19.888;2023-02-01T20:41:36;4.90;72.70
70089;HTU21D;57460;47.134;19.888;2023-02-01T20:44:09;5.01;71.80
70089;HTU21D;57460;47.134;19.888;2023-02-01T20:46:43;4.91;72.38
70089;HTU21D;57460;47.134;19.888;2023-02-01T20:49:10;5.09;71.22
70089;HTU21D;57460;47.134;19.888;2023-02-01T20:51:36;5.03;71.44
70089;HTU21D;57460;47.134;19.888;2023-02-01T20:56:53;4.97;71.65
70089;HTU21D;57460;47.134;19.888;2023-02-01T20:59:19;5.20;70.77
70089;HTU21D;57460;47.134;19.888;2023-02-01T21:02:04;5.28;70.41
70089;HTU21D;57460;47.134;19.888;2023-02-01T21:04:31;5.22;70.69
70089;HTU21D;57460;47.134;19.888;2023-02-01T21:06:58;5.28;70.33
70089;HTU21D;57460;47.134;19.888;2023-02-01T21:09:43;5.32;69.87
70089;HTU21D;57460;47.134;19.888;2023-02-01T21:12:09;5.39;69.91
70089;HTU21D;57460;47.134;19.888;2023-02-01T21:14:38;5.42;69.20
70089;HTU21D;57460;47.134;19.888;2023-02-01T21:17:07;5.47;69.52
70089;HTU21D;57460;47.134;19.888;2023-02-01T21:19:55;5.46;69.28
70089;HTU21D;57460;47.134;19.888;2023-02-01T21:22:21;5.57;69.23
70089;HTU21D;57460;47.134;19.888;2023-02-01T21:25:18;5.56;69.15
70089;HTU21D;57460;47.134;19.888;2023-02-01T21:28:06;5.57;68.50
70089;HTU21D;57460;47.134;19.888;2023-02-01T21:30:36;5.82;68.10
70089;HTU21D;57460;47.134;19.888;2023-02-01T21:33:04;5.71;68.37
70089;HTU21D;57460;47.134;19.888;2023-02-01T21:35:32;5.85;68.14
70089;HTU21D;57460;47.134;19.888;2023-02-01T21:37:59;5.87;67.83
70089;HTU21D;57460;47.134;19.888;2023-02-01T21:40:49;5.79;68.42
70089;HTU21D;57460;47.134;19.888;2023-02-01T21:43:38;5.71;67.91
70089;HTU21D;57460;47.134;19.888;2023-02-01T21:46:10;5.97;67.78
70089;HTU21D;57460;47.134;19.888;2023-02-01T21:48:41;6.07;67.28
70089;HTU21D;57460;47.134;19.888;2023-02-01T21:53:54;6.24;66.50
70089;HTU21D;57460;47.134;19.888;2023-02-01T21:56:20;6.31;66.28
70089;HTU21D;57460;47.134;19.888;2023-02-01T21:59:15;6.23;66.64
70089;HTU21D;57460;47.134;19.888;2023-02-01T22:01:41;6.17;67.11
70089;HTU21D;57460;47.134;19.888;2023-02-01T22:07:33;6.30;66.59
70089;HTU21D;57460;47.134;19.888;2023-02-01T22:10:02;6.29;66.56
70089;HTU21D;57460;47.134;19.888;2023-02-01T22:12:46;6.29;66.59
70089;HTU21D;57460;47.134;19.888;2023-02-01T22:15:35;6.31;66.43
70089;HTU21D;57460;47.134;19.888;2023-02-01T22:18:01;6.41;65.95
70089;HTU21D;57460;47.134;19.888;2023-02-01T22:23:42;6.19;66.68
70089;HTU21D;57460;47.134;19.888;2023-02-01T22:26:17;6.21;66.57
70089;HTU21D;57460;47.134;19.888;2023-02-01T22:28:43;6.40;66.11
70089;HTU21D;57460;47.134;19.888;2023-02-01T22:31:30;6.14;67.34
70089;HTU21D;57460;47.134;19.888;2023-02-01T22:37:15;6.30;67.16
70089;HTU21D;57460;47.134;19.888;2023-02-01T22:42:49;6.45;67.24
70089;HTU21D;57460;47.134;19.888;2023-02-01T22:45:37;6.54;67.09
70089;HTU21D;57460;47.134;19.888;2023-02-01T22:51:29;6.31;68.30
70089;HTU21D;57460;47.134;19.888;2023-02-01T22:53:59;6.51;67.75
70089;HTU21D;57460;47.134;19.888;2023-02-01T22:56:43;6.44;68.10
70089;HTU21D;57460;47.134;19.888;2023-02-01T22:59:12;6.39;68.42
70089;HTU21D;57460;47.134;19.888;2023-02-01T23:01:43;6.38;68.58
70089;HTU21D;57460;47.134;19.888;2023-02-01T23:04:14;6.33;68.92
70089;HTU21D;57460;47.134;19.888;2023-02-01T23:07:30;6.29;69.39
70089;HTU21D;57460;47.134;19.888;2023-02-01T23:10:02;6.30;69.32
70089;HTU21D;57460;47.134;19.888;2023-02-01T23:15:55;6.21;70.12
70089;HTU21D;57460;47.134;19.888;2023-02-01T23:18:45;6.49;69.11
70089;HTU21D;57460;47.134;19.888;2023-02-01T23:24:45;6.07;71.05
70089;HTU21D;57460;47.134;19.888;2023-02-01T23:32:28;5.99;71.22
70089;HTU21D;57460;47.134;19.888;2023-02-01T23:41:04;6.13;70.42
70089;HTU21D;57460;47.134;19.888;2023-02-01T23:46:06;6.26;70.13
70089;HTU21D;57460;47.134;19.888;2023-02-01T23:51:37;6.12;70.65
70089;HTU21D;57460;47.134;19.888;2023-02-01T23:56:46;6.23;69.94
70089;HTU21D;57460;47.134;19.888;2023-02-01T23:59:46;6.34;69.39
